Time;durP1;ratioP1;P1;durP2;ratioP2;P2;SDS_P1;SDS_P2;PMS_P1;PMS_P2;Temp;Humidity;BMP_temperature;BMP_pressure;BME280_temperature;BME280_humidity;BME280_pressure;Samples;Min_cycle;Max_cycle;Signal;HPM_P1;HPM_P2
2023/06/04 00:00:26;;;;;;;0.80;0.80;;;;;;;18.17;90.51;96995.84;5083666;28;20051;-62
2023/06/04 00:02:53;;;;;;;0.75;0.75;;;;;;;18.97;92.09;97131.44;5082240;28;20047;-60
2023/06/04 00:05:21;;;;;;;0.80;0.80;;;;;;;18.92;93.29;97133.94;5083810;28;20052;-61
2023/06/04 00:07:47;;;;;;;0.70;0.70;;;;;;;18.83;94.14;97128.84;5083779;28;20052;-60
2023/06/04 00:10:14;;;;;;;0.70;0.70;;;;;;;18.84;94.02;97130.41;5082002;28;20518;-59
2023/06/04 00:12:41;;;;;;;0.70;0.70;;;;;;;18.92;93.47;97134.72;5083535;28;20066;-61
2023/06/04 00:15:08;;;;;;;0.80;0.80;;;;;;;19.05;91.54;97127.31;5087224;28;20048;-59
2023/06/04 00:17:34;;;;;;;0.80;0.80;;;;;;;19.05;91.99;97126.50;5087907;28;20051;-60
2023/06/04 00:20:01;;;;;;;0.70;0.70;;;;;;;18.92;92.91;97125.50;5087476;28;20048;-60
2023/06/04 00:22:28;;;;;;;0.80;0.80;;;;;;;18.96;93.17;97123.44;5087793;28;20048;-61
2023/06/04 00:24:55;;;;;;;0.80;0.80;;;;;;;18.92;94.15;97112.25;5086098;28;20495;-60
2023/06/04 00:27:21;;;;;;;0.80;0.80;;;;;;;19.02;93.47;97111.31;5087476;28;20048;-61
2023/06/04 00:29:48;;;;;;;0.70;0.70;;;;;;;18.99;93.36;97117.78;5087483;28;20048;-59
2023/06/04 00:32:15;;;;;;;0.70;0.70;;;;;;;19.01;92.74;97118.16;5085767;28;20051;-60
2023/06/04 00:34:41;;;;;;;0.80;0.80;;;;;;;18.82;92.72;97130.06;5087276;28;20147;-62
2023/06/04 00:37:08;;;;;;;0.70;0.70;;;;;;;18.89;93.53;97118.72;5087116;28;20507;-61
2023/06/04 00:39:35;;;;;;;0.80;0.80;;;;;;;18.69;93.24;97074.91;5087329;28;20055;-62
2023/06/04 00:42:01;;;;;;;0.70;0.70;;;;;;;18.95;93.98;97114.22;5086996;28;20050;-61
2023/06/04 00:44:28;;;;;;;0.80;0.80;;;;;;;18.76;94.06;97098.03;5086866;28;20060;-61
2023/06/04 00:46:55;;;;;;;0.80;0.80;;;;;;;18.72;94.96;97091.69;5087121;28;20052;-60
2023/06/04 00:49:21;;;;;;;0.70;0.70;;;;;;;16.60;95.01;96766.94;5085042;28;20063;-62
2023/06/04 00:51:48;;;;;;;0.80;0.80;;;;;;;18.70;95.80;97110.97;5085503;28;20048;-61
2023/06/04 00:54:17;;;;;;;0.70;0.70;;;;;;;18.33;96.76;97063.34;5086978;28;20391;-61
2023/06/04 00:56:44;;;;;;;0.80;0.80;;;;;;;18.62;96.55;97109.47;5086820;28;20129;-61
2023/06/04 00:59:11;;;;;;;0.70;0.70;;;;;;;18.64;96.37;97100.63;5086542;28;20048;-61
2023/06/04 01:02:01;;;;;;;0.73;0.73;;;;;;;18.70;95.76;97105.34;5086690;28;20514;-62
2023/06/04 01:04:48;;;;;;;0.70;0.70;;;;;;;18.65;96.59;97103.00;5086332;28;20052;-61
2023/06/04 01:07:16;;;;;;;0.70;0.70;;;;;;;18.41;97.02;97087.31;5089801;28;20650;-61
2023/06/04 01:09:45;;;;;;;0.80;0.80;;;;;;;18.58;96.50;97108.72;5085409;28;20070;-61
2023/06/04 01:12:12;;;;;;;0.80;0.80;;;;;;;18.28;96.52;97061.00;5084890;28;20066;-62
2023/06/04 01:14:39;;;;;;;0.80;0.80;;;;;;;18.32;94.79;97039.31;5086203;28;20051;-62
2023/06/04 01:17:19;;;;;;;0.70;0.70;;;;;;;18.36;94.60;97048.50;5086501;28;20048;-59
2023/06/04 01:20:04;;;;;;;0.70;0.70;;;;;;;18.67;92.89;97088.59;5085907;28;20570;-60
2023/06/04 01:22:37;;;;;;;0.80;0.80;;;;;;;18.78;93.24;97112.47;5086879;28;20048;-60
2023/06/04 01:25:09;;;;;;;0.80;0.80;;;;;;;18.74;93.70;97110.91;5085499;28;20509;-60
2023/06/04 01:27:36;;;;;;;0.80;0.80;;;;;;;18.73;92.43;97104.50;5086566;28;20044;-60
2023/06/04 01:30:04;;;;;;;0.70;0.70;;;;;;;18.86;91.16;97124.38;5086240;28;20059;-60
2023/06/04 01:32:31;;;;;;;0.80;0.80;;;;;;;18.73;92.33;97121.34;5086103;28;20048;-60
2023/06/04 01:34:58;;;;;;;0.60;0.60;;;;;;;18.75;91.74;97118.91;5086088;28;20469;-61
2023/06/04 01:37:26;;;;;;;0.70;0.70;;;;;;;18.77;92.11;97122.09;5086037;28;20048;-60
2023/06/04 01:39:52;;;;;;;0.75;0.75;;;;;;;18.73;92.45;97114.97;5084520;28;20059;-62
2023/06/04 01:42:19;;;;;;;0.80;0.80;;;;;;;18.65;91.79;97119.84;5084654;28;20048;-60
2023/06/04 01:44:46;;;;;;;0.73;0.73;;;;;;;18.75;91.02;97124.53;5085619;28;20499;-60
2023/06/04 01:47:13;;;;;;;0.80;0.80;;;;;;;18.83;90.48;97125.22;5085897;28;20104;-61
2023/06/04 01:49:40;;;;;;;0.80;0.80;;;;;;;18.77;90.76;97122.09;5083861;28;20127;-60
2023/06/04 01:52:07;;;;;;;0.75;0.75;;;;;;;18.68;91.91;97118.22;5085683;28;20056;-60
2023/06/04 01:54:34;;;;;;;0.80;0.80;;;;;;;18.56;92.15;97105.53;5085289;28;20059;-59
2023/06/04 01:57:00;;;;;;;0.75;0.75;;;;;;;18.76;91.50;97126.09;5085860;28;20087;-61
2023/06/04 01:59:27;;;;;;;0.77;0.77;;;;;;;18.88;89.26;97122.75;5086053;28;20059;-59
2023/06/04 02:01:54;;;;;;;0.90;0.90;;;;;;;18.94;87.93;97120.25;5083962;28;20048;-60
2023/06/04 02:04:21;;;;;;;0.82;0.82;;;;;;;18.81;88.24;97111.59;5085359;28;20241;-61
2023/06/04 02:06:48;;;;;;;0.80;0.80;;;;;;;18.49;89.42;97077.59;5085271;28;20056;-60
2023/06/04 02:09:15;;;;;;;0.73;0.73;;;;;;;18.78;90.11;97128.53;5085525;28;20044;-60
2023/06/04 02:11:42;;;;;;;0.80;0.80;;;;;;;18.82;91.12;97130.06;5085551;28;20063;-62
2023/06/04 02:14:08;;;;;;;0.80;0.80;;;;;;;18.50;91.99;97089.59;5085268;28;20051;-60
2023/06/04 02:16:35;;;;;;;0.70;0.70;;;;;;;18.97;91.13;97142.66;5085058;28;20168;-60
2023/06/04 02:19:03;;;;;;;0.80;0.80;;;;;;;18.43;91.00;97059.63;5083987;28;20135;-61
2023/06/04 02:21:29;;;;;;;0.90;0.90;;;;;;;18.89;90.71;97141.16;5084059;28;20051;-61
2023/06/04 02:23:56;;;;;;;0.80;0.80;;;;;;;18.99;90.36;97148.66;5083812;28;20488;-61
2023/06/04 02:26:23;;;;;;;0.80;0.80;;;;;;;18.54;92.58;97147.25;5080443;28;20127;-60
2023/06/04 02:28:50;;;;;;;0.82;0.82;;;;;;;18.55;93.50;97146.06;5063511;28;20121;-60
2023/06/04 02:31:17;;;;;;;0.90;0.90;;;;;;;18.67;93.84;97151.09;5063318;28;20063;-60
2023/06/04 02:33:43;;;;;;;0.73;0.73;;;;;;;18.56;92.78;97111.16;5063181;28;20079;-60
2023/06/04 02:36:10;;;;;;;0.90;0.90;;;;;;;18.43;92.01;97073.66;5063165;28;20543;-61
2023/06/04 02:38:37;;;;;;;0.70;0.70;;;;;;;18.56;92.79;97111.16;5065043;28;20049;-60
2023/06/04 02:41:03;;;;;;;0.80;0.80;;;;;;;18.89;92.44;97141.16;5079765;28;20049;-61
2023/06/04 02:43:30;;;;;;;0.80;0.80;;;;;;;18.94;92.88;97146.31;5064445;28;20542;-61
2023/06/04 02:45:57;;;;;;;0.90;0.90;;;;;;;18.96;92.17;97152.31;5064444;28;20052;-60
2023/06/04 02:48:24;;;;;;;0.80;0.80;;;;;;;18.89;92.53;97157.25;5064579;28;20057;-60
2023/06/04 02:50:50;;;;;;;0.80;0.80;;;;;;;18.87;93.28;97149.25;5064612;28;20055;-61
2023/06/04 02:53:17;;;;;;;0.70;0.70;;;;;;;18.75;92.91;97141.38;5074689;28;20067;-61
2023/06/04 02:55:44;;;;;;;0.80;0.80;;;;;;;18.75;92.97;97158.22;5082978;28;20513;-60
2023/06/04 02:58:10;;;;;;;0.80;0.80;;;;;;;18.91;92.47;97161.22;5084881;28;20079;-61
2023/06/04 03:00:37;;;;;;;0.80;0.80;;;;;;;18.82;92.16;97162.94;5084341;28;20105;-61
2023/06/04 03:03:04;;;;;;;0.70;0.70;;;;;;;18.82;92.38;97166.56;5084268;28;20133;-60
2023/06/04 03:05:32;;;;;;;0.75;0.75;;;;;;;18.90;92.83;97164.44;5083956;28;20100;-61
2023/06/04 03:08:02;;;;;;;0.77;0.77;;;;;;;18.89;93.12;97169.25;5084594;28;20052;-61
2023/06/04 03:10:31;;;;;;;0.88;0.88;;;;;;;18.62;93.02;97120.69;5083861;28;20102;-61
2023/06/04 03:12:57;;;;;;;0.80;0.80;;;;;;;18.31;93.04;97082.59;5084074;28;20059;-60
2023/06/04 03:15:24;;;;;;;0.80;0.80;;;;;;;18.73;92.83;97148.63;5083815;28;20056;-62
2023/06/04 03:17:51;;;;;;;0.80;0.80;;;;;;;18.99;91.50;97173.94;5084425;28;20048;-60
2023/06/04 03:20:18;;;;;;;0.80;0.80;;;;;;;18.25;91.57;97106.72;5083982;28;20051;-61
2023/06/04 03:22:44;;;;;;;0.80;0.80;;;;;;;18.85;92.49;97178.94;5090649;28;20056;-61
2023/06/04 03:25:11;;;;;;;0.80;0.80;;;;;;;18.91;91.81;97182.84;5104622;28;20055;-61
2023/06/04 03:27:38;;;;;;;0.70;0.70;;;;;;;18.86;91.83;97170.09;5104042;28;20058;-60
2023/06/04 03:30:05;;;;;;;0.73;0.73;;;;;;;18.87;91.92;97177.31;5104379;28;20044;-61
2023/06/04 03:32:32;;;;;;;0.80;0.80;;;;;;;18.93;92.39;97192.47;5102457;28;20063;-61
2023/06/04 03:35:00;;;;;;;0.75;0.75;;;;;;;19.06;90.95;97181.47;5104764;28;20043;-61
2023/06/04 03:37:27;;;;;;;0.73;0.73;;;;;;;18.65;90.63;97119.84;5104367;28;20112;-61
2023/06/04 03:39:54;;;;;;;0.80;0.80;;;;;;;19.00;90.76;97181.13;5104734;28;20780;-61
2023/06/04 03:42:21;;;;;;;0.88;0.88;;;;;;;19.10;90.07;97191.44;5103967;28;20052;-61
2023/06/04 03:44:48;;;;;;;0.80;0.80;;;;;;;19.08;89.03;97170.59;5103911;28;20048;-63
2023/06/04 03:47:14;;;;;;;0.70;0.70;;;;;;;19.12;90.30;97183.38;5102502;28;20062;-61
2023/06/04 03:49:41;;;;;;;0.77;0.77;;;;;;;19.15;90.49;97179.72;5110183;28;20624;-61
2023/06/04 03:52:07;;;;;;;0.80;0.80;;;;;;;19.19;90.63;97188.88;5109056;28;20051;-61
2023/06/04 03:54:34;;;;;;;0.88;0.88;;;;;;;17.57;88.70;96917.38;5089680;28;20055;-62
2023/06/04 03:57:01;;;;;;;0.80;0.80;;;;;;;19.08;88.00;97143.31;5090264;28;20055;-61
2023/06/04 03:59:28;;;;;;;0.80;0.80;;;;;;;19.42;87.19;97191.78;5091319;28;20044;-61
2023/06/04 04:01:55;;;;;;;0.70;0.70;;;;;;;19.47;86.41;97193.31;5090472;28;20066;-61
2023/06/04 04:04:22;;;;;;;0.70;0.70;;;;;;;19.46;86.23;97198.13;5090611;28;20054;-62
2023/06/04 04:06:48;;;;;;;0.80;0.80;;;;;;;19.45;87.34;97192.94;5088665;28;20052;-61
2023/06/04 04:09:15;;;;;;;0.80;0.80;;;;;;;19.57;86.48;97202.81;5084860;28;20056;-62
2023/06/04 04:11:42;;;;;;;0.80;0.80;;;;;;;19.48;86.05;97200.53;5069676;28;20048;-60
2023/06/04 04:14:09;;;;;;;0.73;0.73;;;;;;;19.44;86.77;97206.19;5068871;28;20052;-61
2023/06/04 04:16:35;;;;;;;0.80;0.80;;;;;;;18.87;86.61;97109.94;5069777;28;20057;-61
2023/06/04 04:19:02;;;;;;;0.80;0.80;;;;;;;19.54;86.88;97213.66;5070342;28;20054;-61
2023/06/04 04:21:29;;;;;;;0.82;0.82;;;;;;;19.61;86.05;97209.16;5069844;28;20068;-62
2023/06/04 04:23:55;;;;;;;0.90;0.90;;;;;;;19.72;85.20;97204.97;5070550;28;20071;-61
2023/06/04 04:26:22;;;;;;;0.77;0.77;;;;;;;19.75;86.13;97208.94;5085151;28;20044;-61
2023/06/04 04:28:49;;;;;;;0.80;0.80;;;;;;;19.80;85.94;97214.06;5069933;28;20143;-61
2023/06/04 04:31:17;;;;;;;0.80;0.80;;;;;;;19.85;85.69;97213.59;5068362;28;20521;-62
2023/06/04 04:33:44;;;;;;;0.90;0.90;;;;;;;19.80;85.73;97219.69;5084550;28;20609;-61
2023/06/04 04:36:13;;;;;;;0.80;0.80;;;;;;;19.50;85.58;97167.19;5069474;28;20054;-61
2023/06/04 04:38:41;;;;;;;0.80;0.80;;;;;;;19.72;86.41;97223.84;5069544;28;20463;-61
2023/06/04 04:41:08;;;;;;;0.90;0.90;;;;;;;19.58;87.52;97222.84;5069080;28;20094;-63
2023/06/04 04:43:39;;;;;;;0.80;0.80;;;;;;;19.68;87.45;97214.69;5068819;28;20102;-61
2023/06/04 04:46:06;;;;;;;0.80;0.80;;;;;;;19.68;87.35;97220.31;5068151;28;20176;-61
2023/06/04 04:48:34;;;;;;;0.80;0.80;;;;;;;19.67;87.84;97221.50;5067960;28;20434;-62
2023/06/04 04:51:00;;;;;;;0.80;0.80;;;;;;;17.61;86.45;96892.91;5067623;28;20135;-61
2023/06/04 04:53:27;;;;;;;0.70;0.70;;;;;;;19.56;87.82;97218.88;5085545;28;20518;-62
2023/06/04 04:55:54;;;;;;;0.80;0.80;;;;;;;19.20;88.09;97184.88;5088175;28;20048;-61
2023/06/04 04:58:21;;;;;;;0.80;0.80;;;;;;;19.60;86.76;97227.25;5089954;28;20135;-62
2023/06/04 05:00:47;;;;;;;0.80;0.80;;;;;;;19.60;86.75;97235.69;5086434;28;20070;-62
2023/06/04 05:03:14;;;;;;;0.80;0.80;;;;;;;19.52;87.05;97230.16;5086845;28;20510;-61
2023/06/04 05:05:41;;;;;;;0.80;0.80;;;;;;;19.49;87.78;97238.63;5086944;28;20530;-61
2023/06/04 05:08:08;;;;;;;0.70;0.70;;;;;;;19.34;89.35;97242.88;5086524;28;20134;-61
2023/06/04 05:10:35;;;;;;;0.70;0.70;;;;;;;18.91;89.48;97205.31;5086732;28;20067;-61
2023/06/04 05:13:04;;;;;;;0.70;0.70;;;;;;;19.21;88.85;97248.25;5086649;28;20063;-61
2023/06/04 05:15:31;;;;;;;0.80;0.80;;;;;;;18.89;88.31;97207.78;5084912;28;20151;-61
2023/06/04 05:18:00;;;;;;;0.80;0.80;;;;;;;19.19;87.68;97250.66;5086139;28;20052;-61
2023/06/04 05:20:27;;;;;;;0.70;0.70;;;;;;;19.13;88.46;97268.41;5086558;28;20117;-63
2023/06/04 05:22:55;;;;;;;0.75;0.75;;;;;;;19.13;88.27;97263.59;5086454;28;20052;-61
2023/06/04 05:25:22;;;;;;;0.90;0.90;;;;;;;19.12;88.88;97266.81;5084901;28;20054;-61
2023/06/04 05:27:50;;;;;;;0.80;0.80;;;;;;;18.55;89.63;97193.75;5084379;28;20052;-61
2023/06/04 05:30:16;;;;;;;0.80;0.80;;;;;;;19.28;88.50;97270.63;5084166;28;20052;-60
2023/06/04 05:32:43;;;;;;;0.80;0.80;;;;;;;19.33;88.24;97272.97;5086095;28;20044;-60
2023/06/04 05:35:10;;;;;;;0.80;0.80;;;;;;;18.90;88.54;97203.75;5085813;28;20048;-61
2023/06/04 05:37:40;;;;;;;0.73;0.73;;;;;;;19.62;88.04;97283.84;5086077;28;20052;-62
2023/06/04 05:40:07;;;;;;;0.80;0.80;;;;;;;19.65;85.87;97271.75;5086046;28;20044;-59
2023/06/04 05:42:34;;;;;;;0.82;0.82;;;;;;;19.75;85.81;97280.00;5084922;28;20054;-62
2023/06/04 05:45:01;;;;;;;0.90;0.90;;;;;;;19.45;84.89;97235.91;5085759;28;20051;-60
2023/06/04 05:47:31;;;;;;;0.77;0.77;;;;;;;19.77;85.08;97280.38;5084615;28;20439;-60
2023/06/04 05:49:58;;;;;;;0.88;0.88;;;;;;;19.46;88.25;97290.88;5085543;28;20052;-61
2023/06/04 05:52:25;;;;;;;0.70;0.70;;;;;;;19.24;91.09;97288.72;5085730;28;20051;-60
2023/06/04 05:54:51;;;;;;;0.70;0.70;;;;;;;18.67;89.86;97176.34;5105901;28;20559;-61
2023/06/04 05:57:18;;;;;;;0.75;0.75;;;;;;;19.40;89.39;97295.38;5106040;28;20048;-61
2023/06/04 05:59:45;;;;;;;0.77;0.77;;;;;;;19.08;90.31;97238.78;5105460;28;20054;-60
2023/06/04 06:02:13;;;;;;;0.80;0.80;;;;;;;19.18;89.98;97245.47;5104432;28;20498;-61
2023/06/04 06:04:40;;;;;;;0.80;0.80;;;;;;;19.88;87.78;97302.72;5104660;28;20100;-60
2023/06/04 06:07:07;;;;;;;0.80;0.80;;;;;;;19.99;86.65;97301.34;5106009;28;20088;-61
2023/06/04 06:09:35;;;;;;;0.90;0.90;;;;;;;20.06;86.14;97308.88;5104084;28;20067;-62
2023/06/04 06:12:02;;;;;;;0.90;0.90;;;;;;;19.47;85.68;97216.56;5105602;28;20127;-60
2023/06/04 06:14:29;;;;;;;0.80;0.80;;;;;;;19.48;87.71;97263.16;5106011;28;20415;-61
2023/06/04 06:16:56;;;;;;;0.90;0.90;;;;;;;20.04;87.59;97322.56;5104773;28;20116;-60
2023/06/04 06:19:23;;;;;;;0.80;0.80;;;;;;;20.12;86.54;97318.41;5104265;28;20046;-60
2023/06/04 06:21:49;;;;;;;0.80;0.80;;;;;;;20.12;85.59;97324.81;5105941;28;20364;-61
2023/06/04 06:24:16;;;;;;;0.90;0.90;;;;;;;20.09;86.16;97325.66;5105043;28;20506;-60
2023/06/04 06:26:43;;;;;;;0.80;0.80;;;;;;;19.96;86.89;97327.50;5105233;28;20573;-60
2023/06/04 06:29:10;;;;;;;0.82;0.82;;;;;;;19.72;86.41;97277.25;5104034;28;20079;-61
2023/06/04 06:31:36;;;;;;;0.90;0.90;;;;;;;20.18;85.28;97322.34;5105424;28;20062;-60
2023/06/04 06:34:03;;;;;;;0.80;0.80;;;;;;;20.06;85.27;97303.25;5103884;28;20081;-60
2023/06/04 06:36:30;;;;;;;0.80;0.80;;;;;;;20.30;84.85;97333.00;5103706;28;20052;-60
2023/06/04 06:38:57;;;;;;;0.90;0.90;;;;;;;20.26;85.04;97318.22;5105274;28;20524;-59
2023/06/04 06:41:23;;;;;;;0.80;0.80;;;;;;;20.40;85.63;97341.28;5104969;28;20051;-60
2023/06/04 06:43:50;;;;;;;0.90;0.90;;;;;;;20.44;85.29;97335.56;5104943;28;20083;-60
2023/06/04 06:46:17;;;;;;;0.90;0.90;;;;;;;20.43;85.71;97346.06;5104880;28;20050;-59
2023/06/04 06:48:45;;;;;;;0.90;0.90;;;;;;;19.96;86.69;97276.88;5104380;28;20066;-60
2023/06/04 06:51:12;;;;;;;0.90;0.90;;;;;;;20.59;86.35;97356.63;5091637;28;20056;-61
2023/06/04 06:53:39;;;;;;;0.90;0.90;;;;;;;20.49;85.40;97309.75;5092759;28;20058;-62
2023/06/04 06:56:06;;;;;;;0.80;0.80;;;;;;;20.70;85.32;97360.88;5104330;28;20429;-61
2023/06/04 06:58:33;;;;;;;0.90;0.90;;;;;;;20.64;86.33;97353.34;5105140;28;20055;-60
2023/06/04 07:01:00;;;;;;;0.88;0.88;;;;;;;20.72;87.16;97364.03;5102460;28;20058;-60
2023/06/04 07:03:27;;;;;;;0.90;0.90;;;;;;;19.68;86.00;97175.31;5104288;28;20052;-61
2023/06/04 07:05:54;;;;;;;0.80;0.80;;;;;;;20.85;87.20;97355.75;5104076;28;20047;-60
2023/06/04 07:08:21;;;;;;;0.85;0.85;;;;;;;20.86;87.39;97357.34;5105012;28;20051;-61
2023/06/04 07:10:48;;;;;;;0.90;0.90;;;;;;;20.98;86.86;97353.16;5104465;27;20079;-61
2023/06/04 07:13:15;;;;;;;0.77;0.77;;;;;;;20.78;86.54;97316.47;5104864;28;20521;-60
2023/06/04 07:15:42;;;;;;;0.80;0.80;;;;;;;21.24;85.15;97361.50;5104121;28;20075;-60
2023/06/04 07:18:09;;;;;;;0.90;0.90;;;;;;;21.29;83.77;97357.38;5103347;28;20047;-60
2023/06/04 07:20:36;;;;;;;0.82;0.82;;;;;;;21.42;80.75;97359.09;5104480;28;20048;-61
2023/06/04 07:23:02;;;;;;;0.90;0.90;;;;;;;21.56;79.57;97366.47;5104256;28;20051;-61
2023/06/04 07:25:29;;;;;;;0.90;0.90;;;;;;;21.58;80.33;97370.44;5104439;28;20155;-61
2023/06/04 07:27:58;;;;;;;1.00;1.00;;;;;;;21.58;80.22;97373.25;5105014;28;20044;-62
2023/06/04 07:30:25;;;;;;;0.95;0.95;;;;;;;21.64;79.35;97379.19;5104124;28;20055;-61
2023/06/04 07:32:52;;;;;;;0.80;0.80;;;;;;;21.17;78.55;97308.06;5105116;28;20052;-61
2023/06/04 07:35:19;;;;;;;0.88;0.88;;;;;;;21.57;79.81;97371.69;5104216;28;20051;-60
2023/06/04 07:37:48;;;;;;;0.80;0.80;;;;;;;21.58;79.12;97376.06;5103172;28;20056;-60
2023/06/04 07:40:15;;;;;;;0.90;0.90;;;;;;;21.51;73.93;97369.81;5102253;28;20126;-61
2023/06/04 07:42:42;;;;;;;1.00;1.00;;;;;;;21.48;74.03;97365.81;5104548;28;20821;-60
2023/06/04 07:45:09;;;;;;;1.00;1.00;;;;;;;21.39;74.05;97362.78;5103316;28;20540;-61
2023/06/04 07:47:36;;;;;;;0.90;0.90;;;;;;;21.67;73.05;97379.09;5104270;28;20095;-61
2023/06/04 07:50:05;;;;;;;0.90;0.90;;;;;;;21.16;73.04;97292.41;5103834;28;20179;-61
2023/06/04 07:52:32;;;;;;;0.90;0.90;;;;;;;21.33;72.76;97319.44;5104265;28;20513;-60
2023/06/04 07:55:00;;;;;;;0.90;0.90;;;;;;;21.80;71.37;97382.09;5078712;28;20064;-61
2023/06/04 07:57:27;;;;;;;0.90;0.90;;;;;;;21.83;72.61;97382.00;5062129;28;20053;-59
2023/06/04 07:59:54;;;;;;;1.00;1.00;;;;;;;21.50;73.33;97340.81;5063283;28;20501;-62
2023/06/04 08:02:20;;;;;;;0.90;0.90;;;;;;;20.89;74.11;97272.81;5063407;28;20067;-60
2023/06/04 08:04:47;;;;;;;0.90;0.90;;;;;;;21.60;73.75;97390.53;5063615;28;20049;-61
2023/06/04 08:07:14;;;;;;;0.95;0.95;;;;;;;21.69;73.15;97393.56;5063279;28;20135;-62
2023/06/04 08:09:41;;;;;;;0.98;0.98;;;;;;;21.24;73.11;97350.22;5063778;28;20804;-61
2023/06/04 08:12:08;;;;;;;0.90;0.90;;;;;;;21.40;72.99;97347.47;5063196;28;20072;-61
2023/06/04 08:14:36;;;;;;;0.85;0.85;;;;;;;21.37;72.30;97370.88;5063504;28;20158;-60
2023/06/04 08:17:03;;;;;;;0.90;0.90;;;;;;;21.55;72.66;97399.50;5063219;28;20048;-61
2023/06/04 08:19:30;;;;;;;0.90;0.90;;;;;;;21.48;72.67;97393.22;5063470;28;20048;-60
2023/06/04 08:21:57;;;;;;;0.95;0.95;;;;;;;21.44;72.71;97393.28;5063320;28;20052;-63
2023/06/04 08:24:23;;;;;;;0.95;0.95;;;;;;;21.18;72.49;97394.22;5062905;28;20052;-60
2023/06/04 08:26:50;;;;;;;0.90;0.90;;;;;;;21.34;70.65;97397.09;5063033;28;20055;-61
2023/06/04 08:29:17;;;;;;;0.85;0.85;;;;;;;21.56;71.37;97395.44;5063637;28;20059;-61
2023/06/04 08:31:43;;;;;;;0.90;0.90;;;;;;;21.65;71.84;97404.16;5062890;28;20053;-61
2023/06/04 08:34:10;;;;;;;0.90;0.90;;;;;;;21.60;69.88;97351.06;5063844;28;20064;-60
2023/06/04 08:36:37;;;;;;;0.93;0.93;;;;;;;21.96;69.81;97402.69;5066654;28;20518;-61
2023/06/04 08:39:03;;;;;;;0.93;0.93;;;;;;;21.72;69.66;97358.84;5067014;28;20060;-60
2023/06/04 08:41:56;;;;;;;0.90;0.90;;;;;;;22.18;70.17;97397.34;5066482;28;20055;-61
2023/06/04 08:44:23;;;;;;;1.00;1.00;;;;;;;22.16;70.28;97399.84;5066850;28;20059;-60
2023/06/04 08:46:53;;;;;;;0.90;0.90;;;;;;;22.33;71.21;97410.72;5066303;28;20052;-61
2023/06/04 08:49:22;;;;;;;1.00;1.00;;;;;;;22.40;72.13;97419.00;5066956;28;20163;-61
2023/06/04 08:51:49;;;;;;;1.20;1.20;;;;;;;22.60;71.12;97406.88;5050831;28;20060;-61
2023/06/04 08:54:15;;;;;;;1.00;1.00;;;;;;;22.74;70.04;97395.22;5056101;28;20060;-62
2023/06/04 08:56:44;;;;;;;0.98;0.98;;;;;;;22.96;69.78;97408.38;5066204;28;20048;-61
2023/06/04 08:59:10;;;;;;;1.00;1.00;;;;;;;23.09;68.99;97416.94;5066592;28;20063;-60
2023/06/04 09:01:38;;;;;;;1.02;1.02;;;;;;;23.07;67.31;97419.41;5066087;28;20098;-60
2023/06/04 09:04:07;;;;;;;1.10;1.10;;;;;;;23.10;68.45;97407.19;5066477;28;20399;-60
2023/06/04 09:06:40;;;;;;;1.10;1.10;;;;;;;23.10;69.66;97412.84;5064574;28;20506;-61
2023/06/04 09:09:09;;;;;;;1.10;1.10;;;;;;;23.16;68.54;97419.53;5065151;28;20569;-60
2023/06/04 09:11:42;;;;;;;1.05;1.05;;;;;;;23.24;68.63;97420.94;5064901;28;20044;-61
2023/06/04 09:14:11;;;;;;;1.00;1.00;;;;;;;23.09;69.14;97428.22;5066513;28;20522;-61
2023/06/04 09:16:48;;;;;;;1.08;1.08;;;;;;;22.81;68.81;97407.13;5066201;28;20049;-61
2023/06/04 09:19:16;;;;;;;1.20;1.20;;;;;;;22.74;70.52;97389.56;5065167;28;20060;-61
2023/06/04 09:21:49;;;;;;;1.05;1.05;;;;;;;23.13;70.60;97434.56;5065983;28;20075;-61
2023/06/04 09:24:16;;;;;;;1.05;1.05;;;;;;;22.90;69.24;97398.03;5066332;28;20068;-61
2023/06/04 09:26:43;;;;;;;0.93;0.93;;;;;;;23.06;69.73;97423.47;5065034;28;20496;-60
2023/06/04 09:29:10;;;;;;;1.17;1.17;;;;;;;23.19;68.23;97435.66;5066369;28;20060;-61
2023/06/04 09:31:38;;;;;;;1.10;1.10;;;;;;;23.23;67.13;97433.50;5065555;28;20075;-61
2023/06/04 09:34:05;;;;;;;1.20;1.20;;;;;;;23.32;65.82;97391.28;5064978;28;20507;-61
2023/06/04 09:36:34;;;;;;;1.00;1.00;;;;;;;23.84;64.33;97435.03;5065121;28;20063;-61
2023/06/04 09:39:15;;;;;;;1.15;1.15;;;;;;;23.78;67.26;97441.69;5064448;28;20526;-60
2023/06/04 09:41:41;;;;;;;1.30;1.30;;;;;;;23.77;69.00;97428.81;5065481;28;20051;-61
2023/06/04 09:44:10;;;;;;;1.20;1.20;;;;;;;23.47;70.20;97437.75;5065888;28;20044;-60
2023/06/04 09:46:37;;;;;;;1.20;1.20;;;;;;;23.65;68.39;97433.16;5064466;28;20125;-60
2023/06/04 09:49:05;;;;;;;1.20;1.20;;;;;;;23.92;67.64;97429.97;5065705;28;20048;-60
2023/06/04 09:51:32;;;;;;;1.10;1.10;;;;;;;23.61;69.07;97434.50;5065432;28;20403;-61
2023/06/04 09:54:02;;;;;;;1.10;1.10;;;;;;;23.87;68.02;97433.34;5063913;28;20566;-61
2023/06/04 09:56:29;;;;;;;1.15;1.15;;;;;;;23.81;68.36;97437.97;5065156;28;20048;-62
2023/06/04 09:59:02;;;;;;;1.17;1.17;;;;;;;23.88;67.81;97440.59;5063679;28;20151;-61
2023/06/04 10:01:30;;;;;;;1.17;1.17;;;;;;;23.85;67.28;97433.00;5064048;28;20066;-61
2023/06/04 10:04:02;;;;;;;1.10;1.10;;;;;;;24.00;67.76;97442.69;5063698;28;20079;-61
2023/06/04 10:06:33;;;;;;;1.20;1.20;;;;;;;24.24;65.26;97401.53;5062424;28;20045;-61
2023/06/04 10:09:04;;;;;;;1.13;1.13;;;;;;;24.06;65.95;97415.41;5062152;28;20525;-61
2023/06/04 10:11:54;;;;;;;1.33;1.33;;;;;;;24.63;64.90;97440.72;5063923;28;20371;-60
2023/06/04 10:14:35;;;;;;;1.40;1.40;;;;;;;24.23;65.75;97444.44;5065009;28;20064;-61
2023/06/04 10:17:03;;;;;;;1.30;1.30;;;;;;;24.15;64.20;97440.25;5064730;28;20041;-61
2023/06/04 10:19:31;;;;;;;1.10;1.10;;;;;;;23.72;64.86;97392.56;5065260;28;20061;-60
2023/06/04 10:21:58;;;;;;;1.30;1.30;;;;;;;24.29;64.01;97443.44;5064139;28;20482;-60
2023/06/04 10:24:26;;;;;;;1.10;1.10;;;;;;;24.32;63.67;97442.53;5064051;28;20049;-60
2023/06/04 10:26:55;;;;;;;1.00;1.00;;;;;;;24.64;62.65;97436.66;5064346;28;20048;-60
2023/06/04 10:29:23;;;;;;;1.20;1.20;;;;;;;24.78;63.02;97436.22;5063969;28;20072;-61
2023/06/04 10:31:54;;;;;;;1.15;1.15;;;;;;;24.84;61.39;97397.56;5063834;28;20419;-61
2023/06/04 10:34:21;;;;;;;1.27;1.27;;;;;;;24.76;62.93;97433.06;5063373;28;20052;-61
2023/06/04 10:36:48;;;;;;;1.17;1.17;;;;;;;24.94;62.16;97436.06;5064825;28;20458;-61
2023/06/04 10:39:25;;;;;;;1.17;1.17;;;;;;;24.52;62.73;97425.31;5065091;28;20052;-62
2023/06/04 10:42:00;;;;;;;1.30;1.30;;;;;;;25.40;60.87;97428.88;5064652;28;20467;-61
2023/06/04 10:44:27;;;;;;;1.40;1.40;;;;;;;25.88;59.32;97422.63;5064881;28;20823;-61
2023/06/04 10:46:54;;;;;;;1.30;1.30;;;;;;;26.30;57.76;97431.63;5064614;28;20056;-61
2023/06/04 10:49:28;;;;;;;1.60;1.60;;;;;;;26.77;56.42;97435.03;5062651;28;20061;-62
2023/06/04 10:51:56;;;;;;;1.50;1.50;;;;;;;27.17;55.03;97427.25;5064464;28;20062;-60
2023/06/04 10:54:26;;;;;;;1.50;1.50;;;;;;;27.73;53.12;97413.41;5064537;28;20259;-60
2023/06/04 10:56:53;;;;;;;1.60;1.60;;;;;;;27.92;52.83;97406.44;5064473;28;20419;-61
2023/06/04 10:59:21;;;;;;;1.40;1.40;;;;;;;28.54;50.33;97400.31;5062990;28;20044;-61
2023/06/04 11:01:47;;;;;;;1.63;1.63;;;;;;;27.79;50.32;97257.72;5064302;28;20052;-61
2023/06/04 11:04:25;;;;;;;1.70;1.70;;;;;;;29.11;48.36;97407.66;5063969;28;20138;-60
2023/06/04 11:07:09;;;;;;;1.50;1.50;;;;;;;28.88;49.93;97399.84;5064174;28;20147;-61
2023/06/04 11:09:57;;;;;;;1.63;1.63;;;;;;;28.32;50.19;97349.22;5062397;28;20053;-61
2023/06/04 11:12:23;;;;;;;1.75;1.75;;;;;;;28.56;50.27;97412.03;5062578;28;20067;-61
2023/06/04 11:14:55;;;;;;;1.65;1.65;;;;;;;28.55;49.71;97401.91;5062288;28;20128;-61
2023/06/04 11:17:21;;;;;;;1.90;1.90;;;;;;;28.43;48.90;97402.84;5064193;28;20048;-60
2023/06/04 11:19:48;;;;;;;1.67;1.67;;;;;;;28.56;48.77;97400.63;5063795;28;20090;-60
2023/06/04 11:22:15;;;;;;;1.48;1.48;;;;;;;26.62;52.38;97405.53;5062636;28;20052;-62
2023/06/04 11:24:42;;;;;;;1.77;1.77;;;;;;;27.34;51.16;97391.56;5064063;28;20060;-61
2023/06/04 11:27:09;;;;;;;1.50;1.50;;;;;;;27.23;51.56;97390.41;5062692;28;20048;-61
2023/06/04 11:29:52;;;;;;;1.60;1.60;;;;;;;27.02;51.45;97397.81;5063040;28;20056;-62
2023/06/04 11:32:25;;;;;;;1.60;1.60;;;;;;;25.76;54.41;97403.63;5063858;28;20059;-61
2023/06/04 11:35:02;;;;;;;1.50;1.50;;;;;;;26.22;54.54;97399.06;5063598;28;20110;-61
2023/06/04 11:37:32;;;;;;;1.50;1.50;;;;;;;26.54;53.08;97398.59;5062455;28;20510;-61